KMTC/MTC METAR and TAF weather

Enter ICAO airport designator
Station Type Date Time Source
KMTC METAR 2020/04/03 21:56 UTC NOAA

KMTC 032156Z 08009KT 10SM CLR 13/02 A3002 RMK AO2A SLP174 T01340023 $


Station Type Date Time Source
KMTC Decoded METAR 2020/04/03 21:56 UTC NOAA

Selfridge Air National Guard Base, MI, United States (KMTC) 42-37N 082-50W
Apr 03, 2020 - 05:56 PM EDT / 2020.04.03 2156 UTC
Wind: from the E (080 degrees) at 10 MPH (9 KT):0
Visibility: 10 mile(s):0
Sky conditions: clear
Temperature: 56.1 F (13.4 C)
Dew Point: 36.1 F (2.3 C)
Relative Humidity: 46%
Pressure (altimeter): 30.02 in. Hg (1016 hPa)
ob: KMTC 032156Z 08009KT 10SM CLR 13/02 A3002 RMK AO2A SLP174 T01340023
cycle: 22

Station Type Date Time Source
KMTC TAF 2020/04/03 17:09 UTC NOAA

TAF KMTC 031700Z 0317/0423 35010G15KT 9999 SKC QNH2997INS
BECMG 0409/0411 35009KT 9999 BKN060 QNH2993INS
BECMG 0421/0422 20006KT 9999 OVC030 QNH2990INS TX12/0321Z TN00/0411Z

Example: see airport list